VCBI

Bandaranaike International Airport

Airport
ICAO code
VCBI
IATA Code
CMB
Summary
ICAO Region
APAC
ICAO Territory
Location

Negombo, Western Province

Serving
Colombo
Elevation
26 ft
Coordinates
7° 10' 52" N , 79° 53' 2" E
KCC
Metar
Observation
VCBI 291810Z 00000KT 9999 VCTS FEW018 FEW020CB 28/26 Q1011 NOSIG RMK CB SE/S
Station
Katunayake
Date/Time
2023-03-29 18:10:00
Wind direction
Wind speed
00 kts
Lowest cloud amount
few clouds
Temperature
28°C
Dew point
26°C
Humidity
88%
QNH
1011 hPa
Weather condition
in vicinity: thunderstorm

Colombo International Airport (commonly known as Bandaranaike International Airport, Colombo-Bandaranaike and locally as Katunayake Airport) is the main international airport serving Sri Lanka.

Climatology

Tropical monsoon climate (Köppen climate classification Am)

Runways

Designator Length Width Surface Rops
4/22 3350 45 ASP Yes/Yes

Airport map

Aerial View

SKYbrary Partners:

Safety knowledge contributed by: